createdAt,value
2023-03-05T00:02:30.279Z,-2.65
2023-03-05T00:05:34.879Z,-2.71
2023-03-05T00:08:37.737Z,-2.76
2023-03-05T00:11:40.378Z,-2.81
2023-03-05T00:14:43.006Z,-2.85
2023-03-05T00:17:45.679Z,-2.87
2023-03-05T00:20:48.339Z,-2.91
2023-03-05T00:23:52.030Z,-2.93
2023-03-05T00:26:55.971Z,-2.94
2023-03-05T00:29:58.818Z,-2.95
2023-03-05T00:33:02.086Z,-3.00
2023-03-05T00:36:06.283Z,-3.04
2023-03-05T00:39:09.791Z,-3.06
2023-03-05T00:42:12.504Z,-3.04
2023-03-05T00:45:15.171Z,-2.98
2023-03-05T00:48:17.925Z,-2.93
2023-03-05T00:51:20.646Z,-2.91
2023-03-05T00:54:23.515Z,-2.91
2023-03-05T00:57:27.371Z,-2.92
2023-03-05T01:00:30.051Z,-2.90
2023-03-05T01:03:34.529Z,-2.87
2023-03-05T01:06:39.291Z,-2.82
2023-03-05T01:09:41.915Z,-2.82
2023-03-05T01:12:44.528Z,-2.86
2023-03-05T01:15:48.775Z,-2.88
2023-03-05T01:18:52.221Z,-2.88
2023-03-05T01:21:55.224Z,-2.85
2023-03-05T01:24:58.032Z,-2.87
2023-03-05T01:28:01.308Z,-2.87
2023-03-05T01:31:06.838Z,-2.89
2023-03-05T01:34:09.812Z,-2.92
2023-03-05T01:37:12.656Z,-2.99
2023-03-05T01:40:16.996Z,-3.07
2023-03-05T01:43:23.406Z,-3.14
2023-03-05T01:46:27.917Z,-3.19
2023-03-05T01:49:38.748Z,-3.23
2023-03-05T01:52:43.623Z,-3.27
2023-03-05T01:55:46.423Z,-3.29
2023-03-05T01:58:50.068Z,-3.33
2023-03-05T02:01:54.908Z,-3.39
2023-03-05T02:05:01.556Z,-3.43
2023-03-05T02:08:07.507Z,-3.42
2023-03-05T02:11:10.381Z,-3.39
2023-03-05T02:14:13.116Z,-3.36
2023-03-05T02:17:16.237Z,-3.36
2023-03-05T02:20:20.464Z,-3.35
2023-03-05T02:23:24.898Z,-3.32
2023-03-05T02:26:27.629Z,-3.27
2023-03-05T02:29:30.526Z,-3.25
2023-03-05T02:32:33.231Z,-3.22
2023-03-05T02:35:36.685Z,-3.22
2023-03-05T02:38:40.437Z,-3.21
2023-03-05T02:41:43.462Z,-3.15
2023-03-05T02:44:47.078Z,-3.10
2023-03-05T02:47:49.883Z,-3.09
2023-03-05T02:50:53.353Z,-3.08
2023-03-05T02:53:56.033Z,-3.02
2023-03-05T02:57:01.652Z,-3.03
2023-03-05T03:00:05.382Z,-3.09
2023-03-05T03:03:08.187Z,-3.16
2023-03-05T03:06:10.863Z,-3.21
2023-03-05T03:09:13.511Z,-3.26
2023-03-05T03:12:16.109Z,-3.33
2023-03-05T03:15:19.226Z,-3.36
2023-03-05T03:18:22.091Z,-3.36
2023-03-05T03:21:25.757Z,-3.38
2023-03-05T03:24:30.119Z,-3.45
2023-03-05T03:27:32.828Z,-3.50
2023-03-05T03:30:35.610Z,-3.54
2023-03-05T03:33:38.230Z,-3.56
2023-03-05T03:36:41.167Z,-3.48
2023-03-05T03:39:43.903Z,-3.38
2023-03-05T03:42:46.771Z,-3.34
2023-03-05T03:45:49.673Z,-3.30
2023-03-05T03:48:54.617Z,-3.28
2023-03-05T03:51:58.380Z,-3.29
2023-03-05T03:55:02.129Z,-3.28
2023-03-05T03:58:04.820Z,-3.27
2023-03-05T04:01:07.425Z,-3.29
2023-03-05T04:04:10.564Z,-3.35
2023-03-05T04:07:13.312Z,-3.41
2023-03-05T04:10:15.984Z,-3.46
2023-03-05T04:13:18.766Z,-3.52
2023-03-05T04:16:21.570Z,-3.57
2023-03-05T04:19:24.476Z,-3.62
2023-03-05T04:22:27.362Z,-3.66
2023-03-05T04:25:30.345Z,-3.58
2023-03-05T04:28:33.473Z,-3.55
2023-03-05T04:31:36.091Z,-3.53
2023-03-05T04:34:39.013Z,-3.52
2023-03-05T04:37:41.661Z,-3.50
2023-03-05T04:40:45.175Z,-3.49
2023-03-05T04:43:47.779Z,-3.47
2023-03-05T04:46:50.442Z,-3.46
2023-03-05T04:49:53.180Z,-3.45
2023-03-05T04:52:55.960Z,-3.44
2023-03-05T04:56:01.653Z,-3.42
2023-03-05T04:59:05.883Z,-3.40
2023-03-05T05:02:08.509Z,-3.38
2023-03-05T05:05:22.219Z,-3.34
2023-03-05T05:08:25.108Z,-3.30
2023-03-05T05:11:27.757Z,-3.31
2023-03-05T05:14:30.538Z,-3.33
2023-03-05T05:17:34.181Z,-3.36
2023-03-05T05:20:36.814Z,-3.38
2023-03-05T05:23:42.408Z,-3.38
2023-03-05T05:26:45.083Z,-3.36
2023-03-05T05:29:50.412Z,-3.32
2023-03-05T05:32:53.019Z,-3.28
2023-03-05T05:35:55.695Z,-3.26
2023-03-05T05:38:58.317Z,-3.20
2023-03-05T05:42:01.020Z,-3.08
2023-03-05T05:45:03.862Z,-2.97
2023-03-05T05:48:06.860Z,-2.86
2023-03-05T05:51:13.298Z,-2.70
2023-03-05T05:54:15.951Z,-2.51
2023-03-05T05:57:18.653Z,-2.33
2023-03-05T06:00:21.552Z,-2.20
2023-03-05T06:03:24.332Z,-2.09
2023-03-05T06:06:27.610Z,-2.07
2023-03-05T06:09:30.303Z,-2.14
2023-03-05T06:12:32.925Z,-2.20
2023-03-05T06:15:35.560Z,-2.21
2023-03-05T06:18:38.452Z,-2.26
2023-03-05T06:21:41.594Z,-2.24
2023-03-05T06:24:44.198Z,-2.22
2023-03-05T06:27:46.931Z,-2.26
2023-03-05T06:30:50.235Z,-2.26
2023-03-05T06:33:54.433Z,-2.22
2023-03-05T06:36:57.101Z,-2.20
2023-03-05T06:39:59.711Z,-2.20
2023-03-05T06:43:02.359Z,-2.22
2023-03-05T06:46:11.144Z,-2.18
2023-03-05T06:49:13.880Z,-2.15
2023-03-05T06:52:16.612Z,-2.11
2023-03-05T06:55:19.359Z,-2.07
2023-03-05T06:58:22.039Z,-2.02
2023-03-05T07:01:24.731Z,-1.96
2023-03-05T07:04:27.488Z,-1.91
2023-03-05T07:07:30.483Z,-1.85
2023-03-05T07:10:37.345Z,-1.78
2023-03-05T07:13:40.351Z,-1.72
2023-03-05T07:16:43.090Z,-1.66
2023-03-05T07:19:45.788Z,-1.62
2023-03-05T07:22:48.450Z,-1.59
2023-03-05T07:25:51.146Z,-1.52
2023-03-05T07:28:54.643Z,-1.44
2023-03-05T07:31:57.260Z,-1.36
2023-03-05T07:35:00.725Z,-1.31
2023-03-05T07:38:03.358Z,-1.28
2023-03-05T07:41:07.156Z,-1.25
2023-03-05T07:44:09.838Z,-1.20
2023-03-05T07:47:12.521Z,-1.17
2023-03-05T07:50:15.196Z,-1.12
2023-03-05T07:53:17.894Z,-1.09
2023-03-05T07:56:21.828Z,-1.07
2023-03-05T07:59:24.537Z,-1.05
2023-03-05T08:02:27.299Z,-1.04
2023-03-05T08:05:30.309Z,-1.00
2023-03-05T08:08:33.087Z,-0.95
2023-03-05T08:11:35.705Z,-0.91
2023-03-05T08:14:38.316Z,-0.89
2023-03-05T08:17:41.108Z,-0.86
2023-03-05T08:20:43.883Z,-0.84
2023-03-05T08:23:46.857Z,-0.82
2023-03-05T08:26:49.519Z,-0.79
2023-03-05T08:29:52.122Z,-0.77
2023-03-05T08:32:55.463Z,-0.78
2023-03-05T08:35:58.171Z,-0.75
2023-03-05T08:39:01.052Z,-0.71
2023-03-05T08:42:04.080Z,-0.66
2023-03-05T08:45:07.213Z,-0.65
2023-03-05T08:48:09.819Z,-0.64
2023-03-05T08:51:19.510Z,-0.62
2023-03-05T08:54:22.130Z,-0.59
2023-03-05T08:57:24.924Z,-0.56
2023-03-05T09:00:27.576Z,-0.56
2023-03-05T09:03:30.495Z,-0.52
2023-03-05T09:06:34.528Z,-0.48
2023-03-05T09:09:37.230Z,-0.46
2023-03-05T09:12:40.335Z,-0.47
2023-03-05T09:15:43.081Z,-0.49
2023-03-05T09:18:46.214Z,-0.47
2023-03-05T09:21:48.904Z,-0.48
2023-03-05T09:24:51.511Z,-0.48
2023-03-05T09:27:54.504Z,-0.48
2023-03-05T09:30:57.209Z,-0.46
2023-03-05T09:33:59.874Z,-0.42
2023-03-05T09:37:03.044Z,-0.45
2023-03-05T09:40:06.065Z,-0.45
2023-03-05T09:43:25.998Z,-0.43
2023-03-05T09:46:36.546Z,-0.37
2023-03-05T09:49:57.627Z,-0.28
2023-03-05T09:53:03.049Z,-0.21
2023-03-05T09:56:17.016Z,-0.15
2023-03-05T09:59:19.722Z,-0.08
2023-03-05T10:02:28.333Z,0.03
2023-03-05T10:05:43.549Z,0.10
2023-03-05T10:09:03.142Z,0.16
2023-03-05T10:12:08.035Z,0.23
2023-03-05T10:15:21.185Z,0.30
2023-03-05T10:18:40.263Z,0.40
2023-03-05T10:21:51.782Z,0.43
2023-03-05T10:25:13.033Z,0.43
2023-03-05T10:28:19.729Z,0.47
2023-03-05T10:31:37.210Z,0.51
2023-03-05T10:34:55.153Z,0.51
2023-03-05T10:37:57.932Z,0.52
2023-03-05T10:41:07.787Z,0.57
2023-03-05T10:44:20.017Z,0.57
2023-03-05T10:47:25.569Z,0.61
2023-03-05T10:50:31.803Z,0.64
2023-03-05T10:53:56.151Z,0.66
2023-03-05T10:57:14.329Z,0.66
2023-03-05T11:00:28.038Z,0.71
2023-03-05T11:03:47.903Z,0.75
2023-03-05T11:06:50.819Z,0.81
2023-03-05T11:10:26.204Z,0.90
2023-03-05T11:13:29.477Z,0.95
2023-03-05T11:16:47.245Z,0.98
2023-03-05T11:19:50.087Z,0.95
2023-03-05T11:23:13.030Z,0.94
2023-03-05T11:26:21.952Z,0.93
2023-03-05T11:29:32.283Z,0.96
2023-03-05T11:32:35.453Z,1.01
2023-03-05T11:35:40.292Z,0.95
2023-03-05T11:38:50.413Z,0.94
2023-03-05T11:42:05.480Z,0.96
2023-03-05T11:45:15.381Z,1.00
2023-03-05T11:48:25.916Z,1.06
2023-03-05T11:51:47.293Z,1.09
2023-03-05T11:55:02.081Z,1.07
2023-03-05T11:58:20.773Z,1.00
2023-03-05T12:01:24.741Z,1.03
2023-03-05T12:04:27.643Z,1.12
2023-03-05T12:07:36.256Z,1.17
2023-03-05T12:10:38.929Z,1.20
2023-03-05T12:13:45.390Z,1.27
2023-03-05T12:17:00.636Z,1.22
2023-03-05T12:20:24.054Z,1.21
2023-03-05T12:23:29.854Z,1.20
2023-03-05T12:26:51.124Z,1.22
2023-03-05T12:29:54.442Z,1.33
2023-03-05T12:32:57.067Z,1.41
2023-03-05T12:36:18.493Z,1.48
2023-03-05T12:39:40.420Z,1.59
2023-03-05T12:42:50.017Z,1.67
2023-03-05T12:46:12.889Z,1.68
2023-03-05T12:49:27.171Z,1.66
2023-03-05T12:52:32.161Z,1.58
2023-03-05T12:55:55.678Z,1.55
2023-03-05T12:59:00.520Z,1.52
2023-03-05T13:02:05.427Z,1.50
2023-03-05T13:05:28.674Z,1.45
2023-03-05T13:08:38.166Z,1.45
2023-03-05T13:11:42.394Z,1.47
2023-03-05T13:14:46.320Z,1.48
2023-03-05T13:18:08.562Z,1.48
2023-03-05T13:21:15.460Z,1.43
2023-03-05T13:24:19.397Z,1.39
2023-03-05T13:27:29.804Z,1.34
2023-03-05T13:30:34.368Z,1.31
2023-03-05T13:33:37.812Z,1.27
2023-03-05T13:36:44.665Z,1.19
2023-03-05T13:39:48.709Z,1.10
2023-03-05T13:42:53.398Z,1.03
2023-03-05T13:45:57.293Z,0.97
2023-03-05T13:49:19.084Z,0.92
2023-03-05T13:52:25.670Z,0.88
2023-03-05T13:55:28.379Z,0.80
2023-03-05T13:58:52.703Z,0.73
2023-03-05T14:01:56.716Z,0.67
2023-03-05T14:05:09.714Z,0.61
2023-03-05T14:12:37.934Z,0.58
2023-03-05T14:15:40.640Z,0.62
2023-03-05T14:18:54.835Z,0.64
2023-03-05T14:21:57.752Z,0.69
2023-03-05T14:25:00.470Z,0.73
2023-03-05T14:28:05.604Z,0.76
2023-03-05T14:31:15.780Z,0.76
2023-03-05T14:34:27.428Z,0.74
2023-03-05T14:37:34.403Z,0.66
2023-03-05T14:40:37.950Z,0.59
2023-03-05T14:43:40.622Z,0.52
2023-03-05T14:46:44.380Z,0.41
2023-03-05T14:49:47.152Z,0.32
2023-03-05T14:52:51.400Z,0.27
2023-03-05T14:55:58.343Z,0.21
2023-03-05T14:59:01.018Z,0.10
2023-03-05T15:02:03.651Z,0.06
2023-03-05T15:08:18.796Z,0.06
2023-03-05T15:11:22.854Z,0.01
2023-03-05T15:14:25.504Z,-0.02
2023-03-05T15:17:34.328Z,-0.01
2023-03-05T15:20:39.263Z,-0.06
2023-03-05T15:23:44.477Z,-0.10
2023-03-05T15:26:49.912Z,-0.18
2023-03-05T15:29:53.796Z,-0.20
2023-03-05T15:32:57.943Z,-0.12
2023-03-05T15:36:00.920Z,-0.06
2023-03-05T15:39:03.894Z,-0.06
2023-03-05T15:42:06.971Z,-0.11
2023-03-05T15:45:10.138Z,-0.15
2023-03-05T15:48:12.934Z,-0.20
2023-03-05T15:51:16.622Z,-0.22
2023-03-05T15:54:21.665Z,-0.30
2023-03-05T15:57:24.553Z,-0.39
2023-03-05T16:00:29.764Z,-0.42
2023-03-05T16:03:32.475Z,-0.49
2023-03-05T16:06:35.313Z,-0.57
2023-03-05T16:09:41.382Z,-0.61
2023-03-05T16:12:44.868Z,-0.63
2023-03-05T16:15:52.959Z,-0.67
2023-03-05T16:18:57.655Z,-0.73
2023-03-05T16:22:00.314Z,-0.82
2023-03-05T16:25:03.258Z,-0.91
2023-03-05T16:28:06.304Z,-0.98
2023-03-05T16:31:19.242Z,-0.99
2023-03-05T16:34:23.111Z,-1.05
2023-03-05T16:37:26.289Z,-1.12
2023-03-05T16:40:44.445Z,-1.16
2023-03-05T16:43:59.141Z,-1.21
2023-03-05T16:47:01.870Z,-1.30
2023-03-05T16:50:05.369Z,-1.37
2023-03-05T16:53:08.334Z,-1.40
2023-03-05T16:56:11.068Z,-1.37
2023-03-05T16:59:14.148Z,-1.36
2023-03-05T17:02:17.275Z,-1.36
2023-03-05T17:05:20.553Z,-1.37
2023-03-05T17:08:24.563Z,-1.38
2023-03-05T17:11:27.543Z,-1.44
2023-03-05T17:14:30.187Z,-1.50
2023-03-05T17:17:32.990Z,-1.55
2023-03-05T17:20:36.602Z,-1.62
2023-03-05T17:23:39.779Z,-1.72
2023-03-05T17:26:42.535Z,-1.82
2023-03-05T17:29:45.657Z,-1.93
2023-03-05T17:32:51.752Z,-2.01
2023-03-05T17:35:54.808Z,-2.12
2023-03-05T17:38:57.819Z,-2.20
2023-03-05T17:42:00.691Z,-2.24
2023-03-05T17:45:04.571Z,-2.30
2023-03-05T17:48:09.760Z,-2.35
2023-03-05T17:51:13.851Z,-2.38
2023-03-05T17:54:16.638Z,-2.38
2023-03-05T17:57:20.233Z,-2.40
2023-03-05T18:00:27.518Z,-2.42
2023-03-05T18:03:30.498Z,-2.48
2023-03-05T18:06:33.575Z,-2.57
2023-03-05T18:09:36.347Z,-2.64
2023-03-05T18:12:39.400Z,-2.67
2023-03-05T18:15:47.542Z,-2.73
2023-03-05T18:18:51.276Z,-2.80
2023-03-05T18:21:54.250Z,-2.79
2023-03-05T18:24:58.144Z,-2.79
2023-03-05T18:28:02.513Z,-2.84
2023-03-05T18:31:06.217Z,-2.93
2023-03-05T18:34:09.478Z,-2.97
2023-03-05T18:37:12.391Z,-3.02
2023-03-05T18:40:19.568Z,-3.06
2023-03-05T18:43:23.020Z,-3.13
2023-03-05T18:46:25.831Z,-3.21
2023-03-05T18:49:29.788Z,-3.27
2023-03-05T18:52:32.613Z,-3.27
2023-03-05T18:55:35.487Z,-3.30
2023-03-05T18:58:39.689Z,-3.30
2023-03-05T19:01:44.546Z,-3.35
2023-03-05T19:04:47.393Z,-3.42
2023-03-05T19:07:52.467Z,-3.43
2023-03-05T19:10:55.303Z,-3.39
2023-03-05T19:13:58.534Z,-3.29
2023-03-05T19:17:01.264Z,-3.23
2023-03-05T19:20:06.457Z,-3.17
2023-03-05T19:23:09.288Z,-3.15
2023-03-05T19:26:12.520Z,-3.13
2023-03-05T19:29:15.751Z,-3.13
2023-03-05T19:32:18.541Z,-3.13
2023-03-05T19:35:21.639Z,-3.10
2023-03-05T19:38:25.042Z,-3.09
2023-03-05T19:41:29.509Z,-3.08
2023-03-05T19:44:32.475Z,-3.05
2023-03-05T19:47:35.203Z,-3.08
2023-03-05T19:50:37.845Z,-3.14
2023-03-05T19:53:41.073Z,-3.20
2023-03-05T19:56:44.521Z,-3.22
2023-03-05T19:59:47.284Z,-3.14
2023-03-05T20:02:49.984Z,-3.12
2023-03-05T20:05:52.828Z,-3.12
2023-03-05T20:08:56.431Z,-3.17
2023-03-05T20:12:02.988Z,-3.20
2023-03-05T20:15:06.711Z,-3.19
2023-03-05T20:18:10.111Z,-3.18
2023-03-05T20:21:21.167Z,-3.21
2023-03-05T20:24:24.119Z,-3.22
2023-03-05T20:27:26.805Z,-3.26
2023-03-05T20:30:29.765Z,-3.33
2023-03-05T20:33:34.476Z,-3.40
2023-03-05T20:36:37.684Z,-3.45
2023-03-05T20:39:40.549Z,-3.47
2023-03-05T20:42:43.401Z,-3.46
2023-03-05T20:45:46.311Z,-3.44
2023-03-05T20:48:50.539Z,-3.38
2023-03-05T20:51:53.394Z,-3.30
2023-03-05T20:54:56.176Z,-3.25
2023-03-05T20:57:59.181Z,-3.26
2023-03-05T21:01:01.957Z,-3.30
2023-03-05T21:04:04.730Z,-3.32
2023-03-05T21:07:07.509Z,-3.32
2023-03-05T21:10:11.108Z,-3.30
2023-03-05T21:13:13.958Z,-3.31
2023-03-05T21:16:22.426Z,-3.29
2023-03-05T21:19:25.335Z,-3.26
2023-03-05T21:22:27.962Z,-3.24
2023-03-05T21:25:31.342Z,-3.25
2023-03-05T21:28:34.580Z,-3.24
2023-03-05T21:31:37.723Z,-3.24
2023-03-05T21:34:42.731Z,-3.27
2023-03-05T21:37:45.449Z,-3.31
2023-03-05T21:40:50.068Z,-3.32
2023-03-05T21:43:52.761Z,-3.31
2023-03-05T21:46:55.538Z,-3.34
2023-03-05T21:49:58.372Z,-3.34
2023-03-05T21:53:02.103Z,-3.32
2023-03-05T21:56:31.484Z,-3.34
2023-03-05T21:59:34.644Z,-3.33
2023-03-05T22:02:37.649Z,-3.31
2023-03-05T22:05:42.656Z,-3.29
2023-03-05T22:08:45.861Z,-3.26
2023-03-05T22:11:51.072Z,-3.27
2023-03-05T22:14:53.794Z,-3.29
2023-03-05T22:17:56.454Z,-3.24
2023-03-05T22:20:59.624Z,-3.24
2023-03-05T22:24:02.281Z,-3.25
2023-03-05T22:27:04.937Z,-3.23
2023-03-05T22:30:08.758Z,-3.22
2023-03-05T22:33:12.373Z,-3.23
2023-03-05T22:36:15.541Z,-3.25
2023-03-05T22:39:18.311Z,-3.27
2023-03-05T22:42:21.092Z,-3.27
2023-03-05T22:45:26.244Z,-3.25
2023-03-05T22:48:28.896Z,-3.26
2023-03-05T22:51:31.671Z,-3.26
2023-03-05T22:54:34.317Z,-3.29
2023-03-05T22:57:36.968Z,-3.28
2023-03-05T23:00:40.497Z,-3.24
2023-03-05T23:03:58.818Z,-3.25
2023-03-05T23:07:10.622Z,-3.28
2023-03-05T23:10:18.118Z,-3.31
2023-03-05T23:13:20.833Z,-3.35
2023-03-05T23:16:23.547Z,-3.34
2023-03-05T23:19:26.344Z,-3.31
2023-03-05T23:22:29.118Z,-3.27
2023-03-05T23:25:33.653Z,-3.22
2023-03-05T23:28:36.304Z,-3.20
2023-03-05T23:31:38.957Z,-3.21
2023-03-05T23:34:41.661Z,-3.24
2023-03-05T23:37:44.415Z,-3.25
2023-03-05T23:40:48.488Z,-3.29
2023-03-05T23:43:51.141Z,-3.29
2023-03-05T23:46:53.740Z,-3.29
2023-03-05T23:49:56.452Z,-3.30
2023-03-05T23:53:01.821Z,-3.32
2023-03-05T23:56:10.098Z,-3.31
2023-03-05T23:59:12.960Z,-3.37
